Time;durP1;ratioP1;P1;durP2;ratioP2;P2;SDS_P1;SDS_P2;PMS_P1;PMS_P2;Temp;Humidity;BMP_temperature;BMP_pressure;BME280_temperature;BME280_humidity;BME280_pressure;Samples;Min_cycle;Max_cycle;Signal;HPM_P1;HPM_P2
2022/07/01 00:00:49;;;;;;;7.10;2.27;;;15.20;99.90;;;;;;5036982;28;20072;-78
2022/07/01 00:03:16;;;;;;;6.57;2.10;;;15.20;99.90;;;;;;5043179;28;20067;-77
2022/07/01 00:05:42;;;;;;;10.30;2.40;;;15.20;99.90;;;;;;5058496;28;20043;-78
2022/07/01 00:08:08;;;;;;;3.83;1.97;;;15.20;99.90;;;;;;5060226;28;20411;-78
2022/07/01 00:10:37;;;;;;;7.27;2.27;;;15.20;99.90;;;;;;5091668;28;20039;-78
2022/07/01 00:13:03;;;;;;;4.97;2.10;;;15.20;99.90;;;;;;5057892;28;20158;-77
2022/07/01 00:15:30;;;;;;;5.77;2.60;;;15.20;99.90;;;;;;5071270;28;20562;-78
2022/07/01 00:17:55;;;;;;;8.33;2.40;;;15.10;99.90;;;;;;5073399;28;20139;-78
2022/07/01 00:20:21;;;;;;;4.83;2.23;;;15.10;99.90;;;;;;5056627;28;20123;-77
2022/07/01 00:22:47;;;;;;;5.43;2.30;;;15.10;99.90;;;;;;5052588;28;20414;-78
2022/07/01 00:25:13;;;;;;;6.53;2.00;;;15.10;99.90;;;;;;5058118;28;20040;-78
2022/07/01 00:27:39;;;;;;;5.00;2.40;;;15.20;99.90;;;;;;5074396;28;20113;-77
2022/07/01 00:30:06;;;;;;;5.43;2.10;;;15.20;99.90;;;;;;5057669;28;20704;-78
2022/07/01 00:32:33;;;;;;;6.50;2.57;;;15.20;99.90;;;;;;5068035;28;20467;-78
2022/07/01 00:34:59;;;;;;;5.60;2.37;;;15.20;99.90;;;;;;5073764;28;20045;-80
2022/07/01 00:37:24;;;;;;;5.87;2.10;;;15.20;99.90;;;;;;5090383;28;20040;-78
2022/07/01 00:39:50;;;;;;;6.70;2.13;;;15.20;99.90;;;;;;5074684;28;20054;-78
2022/07/01 00:42:16;;;;;;;6.03;2.33;;;15.20;99.90;;;;;;5091201;28;20529;-78
2022/07/01 00:44:42;;;;;;;5.53;2.27;;;15.20;99.90;;;;;;5091465;28;20051;-78
2022/07/01 00:47:10;;;;;;;6.10;1.57;;;15.20;99.90;;;;;;5073915;28;20047;-77
2022/07/01 00:49:38;;;;;;;2.17;1.40;;;15.20;99.90;;;;;;5087527;28;20036;-79
2022/07/01 00:52:05;;;;;;;4.60;1.60;;;15.20;99.90;;;;;;5041160;28;20063;-77
2022/07/01 00:54:31;;;;;;;5.53;1.40;;;15.20;99.90;;;;;;5057623;28;20036;-78
2022/07/01 00:56:56;;;;;;;4.47;1.80;;;15.20;99.90;;;;;;5069591;28;20540;-77
2022/07/01 00:59:22;;;;;;;3.97;1.40;;;15.20;99.90;;;;;;5090951;28;20097;-78
2022/07/01 01:01:48;;;;;;;4.27;1.37;;;15.30;99.90;;;;;;5073794;28;20048;-78
2022/07/01 01:04:14;;;;;;;2.37;1.30;;;15.30;99.90;;;;;;5091300;28;20052;-78
2022/07/01 01:06:41;;;;;;;2.27;1.07;;;15.30;99.90;;;;;;5087323;28;20063;-78
2022/07/01 01:09:07;;;;;;;3.20;1.30;;;15.30;99.90;;;;;;5040943;28;20532;-78
2022/07/01 01:11:33;;;;;;;3.00;1.20;;;15.30;99.90;;;;;;5074775;28;20127;-77
2022/07/01 01:13:59;;;;;;;2.93;1.13;;;15.30;99.90;;;;;;5074235;28;20048;-79
2022/07/01 01:16:25;;;;;;;3.53;1.00;;;15.30;99.90;;;;;;5074245;28;20495;-77
2022/07/01 01:18:51;;;;;;;2.13;1.00;;;15.30;99.90;;;;;;5091472;28;20054;-78
2022/07/01 01:21:18;;;;;;;3.67;1.20;;;15.30;99.90;;;;;;5068627;28;20056;-78
2022/07/01 01:23:45;;;;;;;3.20;1.30;;;15.30;99.90;;;;;;5052291;28;20131;-77
2022/07/01 01:26:16;;;;;;;2.83;1.30;;;15.40;99.90;;;;;;5073665;28;20040;-78
2022/07/01 01:28:42;;;;;;;4.30;1.17;;;15.30;99.90;;;;;;5083518;28;20055;-78
2022/07/01 01:31:07;;;;;;;4.17;1.10;;;15.30;99.90;;;;;;5090631;28;20040;-78
2022/07/01 01:33:33;;;;;;;2.20;1.10;;;15.30;99.90;;;;;;5091560;28;20047;-78
2022/07/01 01:35:59;;;;;;;2.77;1.53;;;15.30;99.90;;;;;;5074106;28;20142;-78
2022/07/01 01:38:26;;;;;;;2.60;1.17;;;15.30;99.90;;;;;;5090833;28;20181;-78
2022/07/01 01:40:52;;;;;;;2.37;1.33;;;15.30;99.90;;;;;;5077278;28;20109;-78
2022/07/01 01:43:18;;;;;;;2.83;1.20;;;15.30;99.90;;;;;;5059212;28;20040;-78
2022/07/01 01:45:43;;;;;;;3.23;1.20;;;15.30;99.90;;;;;;5057898;28;20058;-78
2022/07/01 01:48:10;;;;;;;3.27;1.20;;;15.20;99.90;;;;;;5080132;28;20126;-78
2022/07/01 01:50:36;;;;;;;1.90;1.17;;;15.20;99.90;;;;;;5078362;28;20411;-77
2022/07/01 01:53:02;;;;;;;2.10;1.30;;;15.10;99.90;;;;;;5077748;28;20042;-78
2022/07/01 01:55:29;;;;;;;3.37;1.40;;;15.20;99.90;;;;;;5094039;28;20040;-78
2022/07/01 01:57:54;;;;;;;2.63;1.30;;;15.20;99.90;;;;;;5075192;28;20486;-77
2022/07/01 02:00:20;;;;;;;4.03;1.60;;;15.20;99.90;;;;;;5059768;28;20097;-78
2022/07/01 02:02:46;;;;;;;1.93;1.50;;;15.10;99.90;;;;;;5054840;28;20064;-77
2022/07/01 02:05:13;;;;;;;2.30;1.47;;;15.10;99.90;;;;;;5075385;28;20515;-78
2022/07/01 02:07:39;;;;;;;3.10;1.73;;;15.10;99.90;;;;;;5077812;28;20044;-77
2022/07/01 02:10:06;;;;;;;3.63;1.80;;;15.10;99.90;;;;;;5094458;28;20040;-77
2022/07/01 02:12:33;;;;;;;2.13;1.57;;;15.10;99.90;;;;;;5077725;28;20051;-77
2022/07/01 02:14:59;;;;;;;3.57;1.93;;;15.10;99.90;;;;;;5075223;28;20064;-78
2022/07/01 02:17:26;;;;;;;4.90;2.10;;;15.10;99.90;;;;;;5046264;28;20047;-78
2022/07/01 02:19:51;;;;;;;3.73;1.47;;;15.10;99.90;;;;;;5077650;28;20085;-78
2022/07/01 02:22:17;;;;;;;4.40;1.63;;;15.10;99.90;;;;;;5060657;28;20048;-78
2022/07/01 02:24:43;;;;;;;3.83;1.90;;;15.10;99.90;;;;;;5044696;28;20040;-78
2022/07/01 02:27:09;;;;;;;2.40;1.80;;;15.10;99.90;;;;;;5075247;28;20035;-79
2022/07/01 02:29:36;;;;;;;3.67;1.97;;;15.10;99.90;;;;;;5045719;28;20468;-78
2022/07/01 02:32:03;;;;;;;2.87;2.00;;;15.00;99.90;;;;;;5077660;28;20040;-77
2022/07/01 02:34:29;;;;;;;3.77;2.23;;;15.00;99.90;;;;;;5077484;28;20470;-78
2022/07/01 02:36:55;;;;;;;3.23;2.10;;;15.00;99.90;;;;;;5060362;28;20040;-78
2022/07/01 02:39:21;;;;;;;5.57;2.20;;;15.00;99.90;;;;;;5076376;28;20048;-78
2022/07/01 02:44:33;;;;;;;4.30;2.20;;;15.00;99.90;;;;;;5077261;28;20044;-77
2022/07/01 02:47:00;;;;;;;3.60;2.80;;;15.00;99.90;;;;;;5093813;28;20134;-77
2022/07/01 02:49:26;;;;;;;5.53;3.30;;;15.00;99.90;;;;;;5073295;28;20127;-78
2022/07/01 02:51:52;;;;;;;4.87;3.33;;;15.00;99.90;;;;;;5072809;28;20489;-78
2022/07/01 02:54:18;;;;;;;6.53;3.50;;;15.00;99.90;;;;;;5060162;28;20139;-77
2022/07/01 02:56:45;;;;;;;6.33;3.77;;;15.00;99.90;;;;;;5071175;28;20048;-77
2022/07/01 02:59:11;;;;;;;5.30;3.43;;;15.00;99.90;;;;;;5093633;28;20627;-77
2022/07/01 03:01:36;;;;;;;5.47;3.73;;;15.00;99.90;;;;;;5059248;28;20080;-77
2022/07/01 03:04:04;;;;;;;7.03;4.27;;;15.00;99.90;;;;;;5077224;28;20123;-78
2022/07/01 03:06:30;;;;;;;4.80;4.17;;;15.00;99.90;;;;;;5071607;28;20085;-77
2022/07/01 03:08:57;;;;;;;7.37;4.87;;;15.00;99.90;;;;;;5075908;28;20028;-77
2022/07/01 03:11:23;;;;;;;6.47;4.33;;;15.00;99.90;;;;;;5076496;28;20040;-78
2022/07/01 03:13:49;;;;;;;6.13;5.17;;;15.00;99.90;;;;;;5093963;28;20461;-77
2022/07/01 03:16:15;;;;;;;7.63;5.17;;;15.00;99.90;;;;;;5076366;28;20066;-78
2022/07/01 03:18:41;;;;;;;10.77;5.20;;;15.00;99.90;;;;;;5063890;28;20040;-78
2022/07/01 03:21:08;;;;;;;6.80;5.50;;;15.00;99.90;;;;;;5059700;28;20395;-78
2022/07/01 03:23:33;;;;;;;6.40;5.03;;;15.00;99.90;;;;;;5073650;28;20119;-78
2022/07/01 03:25:59;;;;;;;9.47;6.17;;;15.00;99.90;;;;;;5059043;28;20124;-78
2022/07/01 03:28:25;;;;;;;12.07;9.43;;;15.00;99.90;;;;;;5068556;28;20047;-78
2022/07/01 03:30:51;;;;;;;18.60;12.93;;;15.00;99.90;;;;;;5075507;22;20078;-77
2022/07/01 03:33:16;;;;;;;18.90;13.17;;;15.00;99.90;;;;;;5039917;28;20045;-76
2022/07/01 03:35:45;;;;;;;19.57;12.33;;;15.00;99.90;;;;;;5053017;28;20136;-77
2022/07/01 03:38:12;;;;;;;17.23;13.90;;;14.90;99.90;;;;;;5053070;28;20461;-77
2022/07/01 03:40:38;;;;;;;22.80;15.40;;;14.90;99.90;;;;;;5053077;28;20508;-78
2022/07/01 03:43:05;;;;;;;18.17;14.83;;;14.90;99.90;;;;;;5053299;28;20408;-77
2022/07/01 03:45:31;;;;;;;16.87;15.03;;;14.90;99.90;;;;;;5052973;28;20592;-77
2022/07/01 03:47:58;;;;;;;23.20;17.00;;;14.90;99.90;;;;;;5036642;28;20123;-78
2022/07/01 03:50:25;;;;;;;23.63;16.03;;;14.80;99.90;;;;;;5035947;28;20040;-77
2022/07/01 03:55:38;;;;;;;24.00;17.60;;;14.80;99.90;;;;;;5034803;28;20035;-77
2022/07/01 03:58:04;;;;;;;24.53;17.83;;;14.80;99.90;;;;;;5032382;28;20041;-78
2022/07/01 04:00:32;;;;;;;24.97;17.70;;;14.80;99.90;;;;;;5036262;28;20060;-78
2022/07/01 04:02:58;;;;;;;22.90;16.90;;;14.80;99.90;;;;;;5006770;28;20044;-77
2022/07/01 04:05:24;;;;;;;26.37;18.17;;;14.80;99.90;;;;;;5023445;28;20037;-78
2022/07/01 04:07:50;;;;;;;25.97;20.03;;;14.80;99.90;;;;;;5054155;28;20099;-77
2022/07/01 04:10:16;;;;;;;27.57;19.20;;;14.80;99.90;;;;;;5036488;28;20040;-77
2022/07/01 04:12:43;;;;;;;32.87;22.27;;;14.80;99.90;;;;;;5053081;28;20045;-77
2022/07/01 04:15:10;;;;;;;34.27;23.27;;;14.80;99.90;;;;;;5053380;28;20071;-77
2022/07/01 04:17:36;;;;;;;38.83;24.83;;;14.80;99.90;;;;;;5021577;28;20123;-77
2022/07/01 04:20:03;;;;;;;36.33;24.60;;;14.70;99.90;;;;;;5003805;28;20128;-78
2022/07/01 04:22:38;;;;;;;35.60;25.80;;;14.70;99.90;;;;;;5045817;28;20053;-77
2022/07/01 04:25:04;;;;;;;41.17;27.27;;;14.70;99.90;;;;;;5002920;28;20042;-77
2022/07/01 04:27:31;;;;;;;43.30;28.57;;;14.70;99.90;;;;;;5039100;28;20044;-78
2022/07/01 04:29:58;;;;;;;39.60;28.50;;;14.70;99.90;;;;;;5020747;28;20041;-79
2022/07/01 04:32:24;;;;;;;43.60;29.87;;;14.80;99.90;;;;;;4998885;28;20500;-77
2022/07/01 04:34:50;;;;;;;42.37;31.90;;;14.70;99.90;;;;;;5033882;28;20061;-78
2022/07/01 04:37:16;;;;;;;42.83;30.20;;;14.70;99.90;;;;;;5035229;28;20049;-78
2022/07/01 04:39:42;;;;;;;41.33;29.57;;;14.70;99.90;;;;;;5053607;28;20115;-77
2022/07/01 04:42:07;;;;;;;38.63;29.43;;;14.70;99.90;;;;;;5037499;28;20159;-78
2022/07/01 04:44:35;;;;;;;39.93;30.70;;;14.70;99.90;;;;;;5050865;28;20072;-78
2022/07/01 04:47:03;;;;;;;43.60;30.87;;;14.70;99.90;;;;;;5020699;28;20576;-76
2022/07/01 04:49:29;;;;;;;38.03;29.23;;;14.70;99.90;;;;;;5022357;28;20500;-78
2022/07/01 04:51:56;;;;;;;40.13;29.90;;;14.70;99.90;;;;;;5037691;28;20048;-77
2022/07/01 04:54:22;;;;;;;45.00;31.50;;;14.70;99.90;;;;;;5053653;28;20045;-77
2022/07/01 04:56:49;;;;;;;44.00;31.33;;;14.70;99.90;;;;;;5034015;28;20492;-79
2022/07/01 04:59:16;;;;;;;43.50;30.87;;;14.70;99.90;;;;;;5037458;28;20106;-77
2022/07/01 05:01:42;;;;;;;47.57;31.97;;;14.70;99.90;;;;;;5018669;28;20069;-77
2022/07/01 05:04:10;;;;;;;44.23;30.73;;;14.70;99.90;;;;;;5020521;28;20052;-77
2022/07/01 05:06:36;;;;;;;40.00;29.70;;;14.70;99.90;;;;;;5032347;28;20045;-78
2022/07/01 05:09:02;;;;;;;45.53;30.43;;;14.70;99.90;;;;;;5056498;28;20047;-77
2022/07/01 05:11:28;;;;;;;42.77;30.07;;;14.70;99.90;;;;;;5039006;28;20037;-77
2022/07/01 05:13:54;;;;;;;41.17;30.43;;;14.70;99.90;;;;;;5037515;28;20045;-77
2022/07/01 05:16:20;;;;;;;45.50;30.80;;;14.70;99.90;;;;;;5038600;28;20045;-78
2022/07/01 05:24:16;;;;;;;46.00;31.27;;;14.80;99.90;;;;;;5038698;28;19928;-76
2022/07/01 05:26:42;;;;;;;40.67;30.40;;;14.70;99.90;;;;;;5052408;28;20416;-77
2022/07/01 05:29:08;;;;;;;41.87;31.57;;;14.70;99.90;;;;;;5047171;28;20089;-77
2022/07/01 05:31:34;;;;;;;41.97;32.03;;;14.70;99.90;;;;;;5007745;28;20073;-77
2022/07/01 05:34:00;;;;;;;43.23;31.93;;;14.70;99.90;;;;;;5032950;28;20071;-77
2022/07/01 05:36:26;;;;;;;43.60;32.17;;;14.70;99.90;;;;;;5019182;28;20500;-78
2022/07/01 05:38:54;;;;;;;41.77;31.20;;;14.80;99.90;;;;;;5037265;28;20051;-77
2022/07/01 05:41:19;;;;;;;43.43;33.17;;;14.80;99.90;;;;;;5035416;28;20079;-78
2022/07/01 05:43:45;;;;;;;42.27;31.50;;;14.80;99.90;;;;;;5035820;28;20399;-78
2022/07/01 05:46:11;;;;;;;42.07;32.27;;;14.80;99.90;;;;;;5019443;28;20072;-78
2022/07/01 05:48:37;;;;;;;44.57;31.87;;;14.80;99.90;;;;;;5005024;28;20112;-77
2022/07/01 05:51:03;;;;;;;43.27;31.57;;;14.90;99.90;;;;;;5035805;28;20049;-77
2022/07/01 05:53:29;;;;;;;40.10;30.90;;;14.90;99.90;;;;;;5056410;28;20043;-77
2022/07/01 05:55:56;;;;;;;42.67;32.87;;;14.90;99.90;;;;;;5055014;28;20140;-78
2022/07/01 05:58:21;;;;;;;43.67;34.27;;;15.00;99.90;;;;;;5033397;28;20055;-77
2022/07/01 06:00:47;;;;;;;42.50;32.27;;;15.00;99.90;;;;;;5017350;28;20049;-77
2022/07/01 06:03:14;;;;;;;41.27;31.50;;;15.00;99.90;;;;;;5036755;28;20037;-77
2022/07/01 06:05:40;;;;;;;42.57;32.67;;;15.00;99.90;;;;;;5037504;28;20135;-77
2022/07/01 06:08:06;;;;;;;40.13;32.87;;;15.10;99.90;;;;;;5036143;28;20055;-76
2022/07/01 06:10:33;;;;;;;38.43;31.83;;;15.10;99.90;;;;;;5037753;28;20043;-76
2022/07/01 06:13:00;;;;;;;39.57;32.23;;;15.20;99.90;;;;;;5046577;28;20063;-77
2022/07/01 06:15:26;;;;;;;39.03;31.40;;;15.20;99.90;;;;;;5020262;28;20052;-77
2022/07/01 06:17:53;;;;;;;40.27;33.37;;;15.20;99.90;;;;;;5035579;28;20151;-78
2022/07/01 06:20:19;;;;;;;36.80;30.70;;;15.30;99.90;;;;;;5033557;28;20040;-79
2022/07/01 06:22:45;;;;;;;36.13;32.17;;;15.30;99.90;;;;;;5051838;28;20052;-77
2022/07/01 06:25:11;;;;;;;41.63;33.67;;;15.30;99.90;;;;;;5038318;28;20452;-77
2022/07/01 06:27:38;;;;;;;36.43;31.17;;;15.30;99.90;;;;;;5019248;28;20064;-79
2022/07/01 06:30:07;;;;;;;33.57;29.37;;;15.30;99.90;;;;;;5000928;28;20037;-78
2022/07/01 06:32:33;;;;;;;37.07;31.23;;;15.30;99.90;;;;;;5026337;28;20045;-77
2022/07/01 06:34:58;;;;;;;35.83;30.97;;;15.30;99.90;;;;;;5053483;28;20110;-77
2022/07/01 06:37:24;;;;;;;36.83;31.77;;;15.30;99.90;;;;;;5039270;28;20079;-76
2022/07/01 06:39:50;;;;;;;36.17;30.37;;;15.30;99.90;;;;;;5056376;28;20049;-76
2022/07/01 06:42:16;;;;;;;40.83;31.67;;;15.40;99.90;;;;;;5026062;28;20060;-77
2022/07/01 06:44:43;;;;;;;41.03;31.43;;;15.40;99.90;;;;;;5023065;28;20049;-77
2022/07/01 06:47:11;;;;;;;36.80;30.67;;;15.50;99.90;;;;;;5007195;28;20132;-78
2022/07/01 06:49:37;;;;;;;38.47;32.27;;;15.50;99.90;;;;;;5038663;28;20085;-76
2022/07/01 06:52:05;;;;;;;38.03;32.63;;;15.40;99.90;;;;;;5022053;28;20048;-77
2022/07/01 06:54:31;;;;;;;37.13;32.67;;;15.50;99.90;;;;;;5039758;28;20040;-76
2022/07/01 06:56:56;;;;;;;39.33;32.03;;;15.40;99.90;;;;;;5047608;28;20068;-78
2022/07/01 06:59:22;;;;;;;36.57;30.90;;;15.50;99.90;;;;;;5009106;28;20064;-77
2022/07/01 07:01:49;;;;;;;35.30;31.10;;;15.50;99.90;;;;;;5036612;28;20107;-78
2022/07/01 07:04:16;;;;;;;34.50;30.77;;;15.50;99.90;;;;;;5010565;28;20049;-79
2022/07/01 07:06:42;;;;;;;35.80;30.77;;;15.50;99.90;;;;;;5054378;28;20520;-79
2022/07/01 07:09:08;;;;;;;33.63;30.10;;;15.50;99.90;;;;;;5052927;28;20041;-76
2022/07/01 07:11:34;;;;;;;36.80;31.97;;;15.50;99.90;;;;;;5064961;28;20492;-78
2022/07/01 07:13:59;;;;;;;36.23;31.63;;;15.50;99.90;;;;;;5019608;28;20077;-79
2022/07/01 07:16:26;;;;;;;35.93;30.30;;;15.50;99.90;;;;;;5003112;28;20041;-77
2022/07/01 07:18:52;;;;;;;37.43;31.90;;;15.50;99.90;;;;;;5048665;28;20115;-78
2022/07/01 07:21:19;;;;;;;34.87;29.97;;;15.50;99.90;;;;;;5053351;28;20073;-77
2022/07/01 07:23:45;;;;;;;34.60;30.20;;;15.50;99.90;;;;;;5036452;28;20072;-77
2022/07/01 07:26:11;;;;;;;36.63;30.30;;;15.60;99.90;;;;;;5029804;28;20515;-77
2022/07/01 07:28:37;;;;;;;38.30;30.60;;;15.50;99.90;;;;;;5020022;28;20036;-77
2022/07/01 07:31:03;;;;;;;34.70;30.10;;;15.60;99.90;;;;;;5021531;28;20045;-77
2022/07/01 07:33:29;;;;;;;33.67;29.13;;;15.70;99.90;;;;;;5036378;28;20428;-78
2022/07/01 07:35:55;;;;;;;36.90;30.73;;;15.80;99.90;;;;;;5052464;28;20055;-77
2022/07/01 07:38:22;;;;;;;36.87;29.13;;;15.80;99.90;;;;;;5035821;28;20059;-77
2022/07/01 07:40:48;;;;;;;34.37;29.30;;;15.90;99.90;;;;;;5031109;28;20049;-79
2022/07/01 07:43:14;;;;;;;39.07;30.10;;;16.00;99.90;;;;;;5019221;28;20048;-78
2022/07/01 07:45:39;;;;;;;31.50;27.23;;;16.10;99.90;;;;;;5035050;28;20111;-80
2022/07/01 07:48:06;;;;;;;32.60;27.47;;;16.10;99.90;;;;;;5012699;28;20077;-78
2022/07/01 07:50:32;;;;;;;32.20;27.13;;;16.10;99.90;;;;;;5035251;28;20127;-78
2022/07/01 07:52:58;;;;;;;31.57;26.10;;;16.10;99.90;;;;;;5031260;28;20218;-78
2022/07/01 07:55:25;;;;;;;31.00;26.53;;;16.10;99.90;;;;;;5029282;28;20567;-79
2022/07/01 07:57:51;;;;;;;27.87;24.80;;;16.20;99.90;;;;;;5034591;28;20045;-78
2022/07/01 08:00:17;;;;;;;31.03;25.20;;;16.30;99.90;;;;;;5031813;28;20091;-80
2022/07/01 08:02:43;;;;;;;29.80;25.07;;;16.30;99.90;;;;;;5031605;28;20455;-79
2022/07/01 08:05:10;;;;;;;28.77;23.83;;;16.40;99.90;;;;;;5032985;28;20069;-80
2022/07/01 08:07:36;;;;;;;27.97;24.97;;;16.50;99.90;;;;;;5034728;28;20041;-77
2022/07/01 08:10:03;;;;;;;28.40;24.77;;;16.60;99.90;;;;;;5023317;28;20064;-77
2022/07/01 08:12:30;;;;;;;24.70;21.77;;;16.80;99.90;;;;;;5016338;28;20048;-78
2022/07/01 08:14:56;;;;;;;25.50;21.40;;;16.90;99.90;;;;;;5018804;28;20049;-78
2022/07/01 08:17:21;;;;;;;24.33;20.97;;;17.00;99.90;;;;;;5006978;28;20048;-78
2022/07/01 08:19:47;;;;;;;26.03;22.37;;;17.10;99.90;;;;;;5014419;28;20084;-78
2022/07/01 08:22:13;;;;;;;28.10;22.13;;;17.30;99.90;;;;;;5029826;28;20040;-78
2022/07/01 08:24:39;;;;;;;22.17;19.77;;;17.40;99.90;;;;;;5053603;28;20048;-79
2022/07/01 08:27:04;;;;;;;27.80;21.60;;;17.50;99.90;;;;;;5033268;28;20067;-78
2022/07/01 08:29:32;;;;;;;22.63;20.23;;;17.50;99.90;;;;;;5020391;28;20280;-78
2022/07/01 08:31:57;;;;;;;20.13;18.00;;;17.60;99.90;;;;;;5049381;28;20403;-78
2022/07/01 08:34:23;;;;;;;24.90;19.17;;;17.60;99.90;;;;;;5041770;28;20036;-79
2022/07/01 08:36:49;;;;;;;19.83;16.70;;;17.70;99.90;;;;;;5016715;28;20428;-79
2022/07/01 08:39:15;;;;;;;18.43;15.70;;;17.70;99.90;;;;;;5007513;28;20530;-80
2022/07/01 08:41:41;;;;;;;21.27;16.20;;;17.90;99.90;;;;;;5033833;28;20134;-78
2022/07/01 08:44:08;;;;;;;20.50;16.77;;;18.10;99.90;;;;;;5016277;28;20064;-80
2022/07/01 08:46:35;;;;;;;20.47;16.57;;;18.20;99.90;;;;;;5038299;28;20044;-79
2022/07/01 08:49:01;;;;;;;22.07;17.20;;;18.30;99.90;;;;;;5033923;28;20065;-80
2022/07/01 08:51:27;;;;;;;18.73;14.23;;;18.10;99.90;;;;;;5015593;28;20175;-78
2022/07/01 08:53:52;;;;;;;21.47;15.23;;;18.10;99.90;;;;;;5034344;28;20075;-80
2022/07/01 08:59:05;;;;;;;18.60;14.97;;;18.10;99.90;;;;;;5028758;28;20428;-80
2022/07/01 09:01:32;;;;;;;24.07;14.27;;;18.20;99.90;;;;;;5037770;28;20134;-79
2022/07/01 09:04:15;;;;;;;16.60;13.50;;;18.30;99.90;;;;;;5032341;28;20044;-78
2022/07/01 09:06:42;;;;;;;19.90;13.00;;;18.60;99.90;;;;;;5026017;28;20056;-79
2022/07/01 09:09:13;;;;;;;19.03;13.50;;;18.80;99.90;;;;;;5015785;28;20042;-80
2022/07/01 09:11:45;;;;;;;17.37;13.50;;;18.90;99.90;;;;;;5031951;28;20037;-80
2022/07/01 09:14:12;;;;;;;17.90;13.93;;;18.90;99.90;;;;;;5022038;28;20116;-80
2022/07/01 09:16:42;;;;;;;20.87;13.30;;;19.10;99.90;;;;;;5015811;28;20033;-79
2022/07/01 09:19:10;;;;;;;18.97;12.80;;;19.10;99.90;;;;;;5006546;28;20041;-79
2022/07/01 09:21:36;;;;;;;17.53;11.80;;;19.10;99.90;;;;;;5021341;28;20124;-79
2022/07/01 09:24:04;;;;;;;17.93;11.70;;;19.20;99.90;;;;;;5025131;28;20128;-80
2022/07/01 09:26:30;;;;;;;17.10;11.73;;;19.30;99.90;;;;;;5012617;28;20496;-79
2022/07/01 09:28:57;;;;;;;14.60;11.20;;;19.20;99.90;;;;;;5034078;28;20054;-80
2022/07/01 09:31:32;;;;;;;14.10;11.00;;;19.10;99.90;;;;;;5027119;28;20515;-80
2022/07/01 09:34:04;;;;;;;;;;;18.90;99.90;;;;;;5012431;28;20041;-81
2022/07/01 09:36:32;;;;;;;16.23;10.30;;;18.80;99.90;;;;;;5034294;28;19970;-78
2022/07/01 09:39:02;;;;;;;15.23;10.30;;;18.80;99.90;;;;;;5014803;28;20046;-79
2022/07/01 09:41:35;;;;;;;16.30;10.70;;;18.80;99.90;;;;;;5012505;28;20091;-80
2022/07/01 09:44:04;;;;;;;16.80;9.93;;;19.00;99.90;;;;;;5012795;28;20070;-79
2022/07/01 09:46:30;;;;;;;15.20;9.90;;;19.00;99.90;;;;;;5021867;28;20049;-79
2022/07/01 09:48:55;;;;;;;17.53;8.83;;;19.00;99.90;;;;;;5013822;28;20488;-80
2022/07/01 09:51:21;;;;;;;11.83;7.30;;;19.00;99.90;;;;;;5026273;28;20052;-80
2022/07/01 09:53:48;;;;;;;10.80;7.97;;;19.00;99.90;;;;;;5001699;28;20098;-80
2022/07/01 09:56:14;;;;;;;12.17;8.10;;;19.00;99.90;;;;;;5014545;28;20748;-79
2022/07/01 09:58:42;;;;;;;10.63;7.90;;;19.00;99.90;;;;;;5025660;28;20052;-79
2022/07/01 10:01:09;;;;;;;14.20;8.87;;;19.10;99.90;;;;;;5009355;28;20045;-79
2022/07/01 10:03:37;;;;;;;12.70;7.83;;;19.20;99.90;;;;;;5009537;28;20083;-81
2022/07/01 10:06:24;;;;;;;12.37;8.50;;;19.40;99.90;;;;;;5023951;28;20520;-80
2022/07/01 10:09:03;;;;;;;13.63;8.73;;;19.40;99.90;;;;;;4994837;28;20049;-80
2022/07/01 10:11:55;;;;;;;12.70;8.30;;;19.30;99.90;;;;;;5028172;28;20102;-78
2022/07/01 10:14:22;;;;;;;13.27;7.53;;;19.10;99.90;;;;;;5051958;28;20045;-79
2022/07/01 10:16:51;;;;;;;11.13;6.80;;;19.10;99.90;;;;;;5017591;28;20037;-78
2022/07/01 10:19:28;;;;;;;9.17;5.43;;;19.00;99.90;;;;;;5026559;28;20044;-79
2022/07/01 10:21:57;;;;;;;11.90;5.67;;;19.10;99.90;;;;;;5013682;28;20178;-78
2022/07/01 10:24:26;;;;;;;7.83;5.10;;;19.20;99.90;;;;;;5015465;28;20049;-79
2022/07/01 10:26:52;;;;;;;8.77;5.10;;;19.60;99.90;;;;;;5035164;28;20049;-80
2022/07/01 10:29:32;;;;;;;10.00;5.90;;;19.90;99.90;;;;;;5026646;28;20061;-81
2022/07/01 10:32:06;;;;;;;9.93;5.37;;;20.10;99.90;;;;;;5024360;28;20518;-78
2022/07/01 10:34:38;;;;;;;11.97;5.40;;;20.00;99.90;;;;;;5016146;28;20044;-79
2022/07/01 10:37:06;;;;;;;9.53;5.17;;;20.20;99.90;;;;;;5044588;28;20044;-79
2022/07/01 10:39:56;;;;;;;9.07;4.63;;;20.50;99.90;;;;;;5035592;28;20051;-80
2022/07/01 10:42:26;;;;;;;11.57;5.00;;;20.80;99.90;;;;;;5026286;28;20095;-79
2022/07/01 10:45:08;;;;;;;7.90;4.77;;;21.00;99.90;;;;;;5003120;28;20152;-81
2022/07/01 10:47:34;;;;;;;10.00;4.70;;;20.90;99.90;;;;;;5020775;28;20603;-77
2022/07/01 10:50:08;;;;;;;12.00;4.93;;;21.00;99.90;;;;;;5036614;28;20044;-78
2022/07/01 10:52:34;;;;;;;9.60;5.15;;;21.00;99.90;;;;;;5036571;28;20435;-79
2022/07/01 10:55:03;;;;;;;10.53;4.97;;;20.80;99.90;;;;;;5069394;28;20100;-80
2022/07/01 10:57:32;;;;;;;8.53;4.93;;;20.50;99.90;;;;;;5026585;28;20045;-79
2022/07/01 11:00:29;;;;;;;7.17;3.80;;;20.50;99.90;;;;;;5019837;28;20463;-79
2022/07/01 11:02:55;;;;;;;7.83;3.87;;;20.90;99.90;;;;;;5048067;28;20049;-80
2022/07/01 11:05:22;;;;;;;9.30;3.80;;;21.30;99.90;;;;;;5052928;28;20524;-80
2022/07/01 11:07:48;;;;;;;11.30;3.53;;;21.70;99.90;;;;;;5036171;28;20049;-78
2022/07/01 11:10:17;;;;;;;11.90;3.60;;;22.00;99.90;;;;;;5029932;28;20048;-79
2022/07/01 11:12:48;;;;;;;7.13;3.47;;;22.30;99.90;;;;;;5002687;28;20516;-78
2022/07/01 11:15:15;;;;;;;10.10;3.30;;;22.30;99.90;;;;;;5050706;28;20041;-79
2022/07/01 11:17:43;;;;;;;6.07;3.37;;;21.90;99.90;;;;;;5036177;28;20056;-78
2022/07/01 11:20:10;;;;;;;11.80;3.40;;;22.10;99.90;;;;;;5020275;28;20041;-80
2022/07/01 11:22:36;;;;;;;5.70;3.30;;;21.90;99.90;;;;;;5018425;28;20045;-78
2022/07/01 11:25:04;;;;;;;5.77;3.00;;;21.90;99.90;;;;;;5040020;28;20056;-78
2022/07/01 11:27:33;;;;;;;11.02;2.83;;;22.00;99.90;;;;;;5016765;28;20059;-78
2022/07/01 11:30:00;;;;;;;7.20;2.90;;;22.10;99.90;;;;;;5023389;28;20040;-79
2022/07/01 11:32:26;;;;;;;7.07;2.73;;;22.40;99.90;;;;;;5033688;28;20040;-79
2022/07/01 11:34:52;;;;;;;6.60;2.35;;;22.60;99.90;;;;;;5019157;28;20045;-80
2022/07/01 11:40:06;;;;;;;5.17;1.97;;;22.40;99.50;;;;;;5052067;28;20111;-79
2022/07/01 11:42:33;;;;;;;5.30;1.90;;;22.50;99.90;;;;;;5040988;28;20528;-80
2022/07/01 11:44:59;;;;;;;5.15;1.90;;;22.90;99.90;;;;;;5036012;28;20129;-79
2022/07/01 11:47:26;;;;;;;4.50;1.80;;;23.00;97.50;;;;;;5035147;28;20130;-78
2022/07/01 11:49:53;;;;;;;6.65;1.80;;;22.80;98.40;;;;;;5035450;28;20061;-78
2022/07/01 11:52:21;;;;;;;5.80;1.45;;;22.90;97.90;;;;;;5051793;28;20072;-78
2022/07/01 11:54:49;;;;;;;5.43;1.67;;;23.10;98.90;;;;;;5052237;28;20120;-82
2022/07/01 11:57:16;;;;;;;9.15;1.60;;;23.10;98.50;;;;;;5050857;28;20049;-78
2022/07/01 11:59:45;;;;;;;6.43;2.00;;;22.80;98.10;;;;;;5035343;28;20518;-78
2022/07/01 12:02:14;;;;;;;4.88;1.77;;;22.30;97.80;;;;;;5018422;28;20048;-79
2022/07/01 12:04:40;;;;;;;6.05;1.30;;;22.40;98.60;;;;;;5045142;28;20049;-79
2022/07/01 12:07:06;;;;;;;6.15;1.40;;;22.40;99.30;;;;;;5035172;28;20127;-79
2022/07/01 12:09:33;;;;;;;4.15;1.05;;;22.60;99.90;;;;;;5035039;28;20041;-79
2022/07/01 12:11:59;;;;;;;5.75;1.33;;;22.40;97.10;;;;;;5034922;28;20508;-77
2022/07/01 12:14:27;;;;;;;5.95;1.30;;;21.90;96.90;;;;;;5024316;28;20045;-78
2022/07/01 12:16:56;;;;;;;5.25;1.45;;;21.50;97.90;;;;;;5039166;28;20064;-78
2022/07/01 12:19:28;;;;;;;7.32;1.30;;;21.30;98.00;;;;;;5017770;28;20080;-79
2022/07/01 12:21:57;;;;;;;4.65;1.25;;;21.40;99.40;;;;;;5051799;28;20044;-79
2022/07/01 12:24:24;;;;;;;5.57;1.30;;;21.90;99.50;;;;;;5029798;28;20102;-79
2022/07/01 12:26:53;;;;;;;4.85;1.17;;;22.20;98.40;;;;;;5022336;28;20045;-79
2022/07/01 12:29:21;;;;;;;7.72;1.40;;;22.30;98.20;;;;;;5016006;28;20056;-77
2022/07/01 12:31:59;;;;;;;3.42;1.00;;;22.20;97.10;;;;;;5029532;28;20049;-79
2022/07/01 12:34:41;;;;;;;6.25;1.30;;;21.90;97.50;;;;;;5033449;28;20052;-79
2022/07/01 12:37:13;;;;;;;5.53;1.23;;;21.80;98.80;;;;;;5031908;28;20522;-79
2022/07/01 12:39:43;;;;;;;6.82;1.10;;;22.00;98.50;;;;;;5029866;28;20033;-79
2022/07/01 12:42:20;;;;;;;5.55;1.38;;;21.90;98.60;;;;;;5034427;28;20064;-79
2022/07/01 12:44:46;;;;;;;5.53;1.50;;;21.70;98.50;;;;;;5031300;28;20049;-79
2022/07/01 12:47:21;;;;;;;6.70;1.67;;;22.00;99.60;;;;;;5030884;28;20048;-78
2022/07/01 12:49:47;;;;;;;8.57;1.45;;;22.00;99.60;;;;;;5017846;28;20481;-79
2022/07/01 12:52:26;;;;;;;5.30;1.40;;;21.60;99.90;;;;;;5017755;28;20041;-79